Hotchkiss, CO

6:54 AM MDT on July 04, 2015 (GMT -0600)
Rogers Mesa CO | | Change Station
CLOSE
Current Station
Personal Weather Station
Location: Rogers Mesa, CO
Elevation: 5794 ft
Nearby Weather Stations

Elev 5794 ft 38.81 °N, 107.77 °W | Updated 18 seconds ago

Mostly Cloudy
Mostly Cloudy
62.8 °F
Feels Like 62.8 °F
N
1.1
Wind Variable Wind from NNW
Gusts 1.1 mph

Today
High -- | Low -- °F
--% Chance of Precip.
Yesterday
High -- | Low -- °F
Precip. -- in
5:51 AM 8:39 PM
Waning Gibbous, 92% visible
Pressure 30.15 in
Visibility 10.0 miles
Clouds Scattered Clouds 12000 ft
Dew Point 60 °F
Humidity 89%
Rainfall 0.00 in
Snow Depth Not available.
UV 0 out of 12
Pollen 3.70 out of 12
Air Quality Not available.
Flu Activity Not available.
METAR KAJZ 041235Z AUTO 05005KT 10SM SCT120 21/11 A3015 RMK AO2 T02120110 PWINO

More Conditions Fewer Conditions

Pressure 30.15 in
Visibility 10.0 miles
Clouds Scattered Clouds 12000 ft
Dew Point 60 °F
Humidity 89%
Rainfall 0.00 in
Snow Depth Not available.
UV 0 out of 12
Pollen 3.70 out of 12
Air Quality Not available.
Flu Activity Not available.
METAR KAJZ 041235Z AUTO 05005KT 10SM SCT120 21/11 A3015 RMK AO2 T02120110 PWINO

More Conditions Fewer Conditions

10-Day Weather Forecast

×

Almanac

Astronomy

Jul. 04, 2015 Rise Set
Actual Time
Civil Twilight
Nautical Twilight
Astronomical Twilight
Moon
Length of Visible Light
Length of Day
Tomorrow will be .
, % of the Moon is Illuminated

Today's Extremes

State Highs State Lows

Community

WunderPhotos

Upload Photos

1,834,948 photos uploaded!

WunderBlogs® & News

Nearby

Air Quality

  Air Quality AQ Index Pollutant
Not available.

Snow Depth

Station Depth Elevation

Earthquake Activity

City Distance Mag. Time & Date
Minimum magnitude displayed is 2.5.

Coastal Water Temperatures

Place Temperature

Stations

Nearby Weather Stations

Station Location Temp. Windchill Dew Point Humidity Wind Precip. Elev Updated Type